sensor_id;sensor_type;location;lat;lon;timestamp;temperature;humidity
29341;DHT22;16337;59.536;13.468;2023-09-30T00:00:44;13.70;99.90
29341;DHT22;16337;59.536;13.468;2023-09-30T00:03:09;13.70;99.90
29341;DHT22;16337;59.536;13.468;2023-09-30T00:05:36;13.60;99.90
29341;DHT22;16337;59.536;13.468;2023-09-30T00:08:03;13.60;99.90
29341;DHT22;16337;59.536;13.468;2023-09-30T00:10:29;13.60;99.90
29341;DHT22;16337;59.536;13.468;2023-09-30T00:12:56;13.60;99.90
29341;DHT22;16337;59.536;13.468;2023-09-30T00:15:22;13.50;99.90
29341;DHT22;16337;59.536;13.468;2023-09-30T00:17:48;13.40;99.90
29341;DHT22;16337;59.536;13.468;2023-09-30T00:20:13;13.30;99.90
29341;DHT22;16337;59.536;13.468;2023-09-30T00:22:41;13.20;99.90
29341;DHT22;16337;59.536;13.468;2023-09-30T00:25:07;13.20;99.90
29341;DHT22;16337;59.536;13.468;2023-09-30T00:27:32;13.10;99.90
29341;DHT22;16337;59.536;13.468;2023-09-30T00:29:58;13.00;99.90
29341;DHT22;16337;59.536;13.468;2023-09-30T00:32:28;12.90;99.90
29341;DHT22;16337;59.536;13.468;2023-09-30T00:34:53;12.90;99.90
29341;DHT22;16337;59.536;13.468;2023-09-30T00:37:20;12.80;99.90
29341;DHT22;16337;59.536;13.468;2023-09-30T00:39:46;12.70;99.90
29341;DHT22;16337;59.536;13.468;2023-09-30T00:42:12;12.60;99.90
29341;DHT22;16337;59.536;13.468;2023-09-30T00:44:37;12.50;99.90
29341;DHT22;16337;59.536;13.468;2023-09-30T00:47:03;12.40;99.90
29341;DHT22;16337;59.536;13.468;2023-09-30T00:49:30;12.20;99.90
29341;DHT22;16337;59.536;13.468;2023-09-30T00:51:57;12.10;99.90
29341;DHT22;16337;59.536;13.468;2023-09-30T00:54:24;11.90;99.90
29341;DHT22;16337;59.536;13.468;2023-09-30T00:56:51;11.80;99.90
29341;DHT22;16337;59.536;13.468;2023-09-30T00:59:18;11.70;99.90
29341;DHT22;16337;59.536;13.468;2023-09-30T01:01:46;11.60;99.90
29341;DHT22;16337;59.536;13.468;2023-09-30T01:04:12;11.50;99.90
29341;DHT22;16337;59.536;13.468;2023-09-30T01:06:38;11.40;99.90
29341;DHT22;16337;59.536;13.468;2023-09-30T01:09:04;11.40;99.90
29341;DHT22;16337;59.536;13.468;2023-09-30T01:11:30;11.30;99.90
29341;DHT22;16337;59.536;13.468;2023-09-30T01:13:56;11.10;99.90
29341;DHT22;16337;59.536;13.468;2023-09-30T01:16:23;11.10;99.90
29341;DHT22;16337;59.536;13.468;2023-09-30T01:18:49;11.00;99.90
29341;DHT22;16337;59.536;13.468;2023-09-30T01:21:15;10.90;99.90
29341;DHT22;16337;59.536;13.468;2023-09-30T01:23:41;10.90;99.90
29341;DHT22;16337;59.536;13.468;2023-09-30T01:26:11;10.90;99.90
29341;DHT22;16337;59.536;13.468;2023-09-30T01:28:40;10.80;99.90
29341;DHT22;16337;59.536;13.468;2023-09-30T01:31:07;10.90;99.90
29341;DHT22;16337;59.536;13.468;2023-09-30T01:33:32;10.90;99.90
29341;DHT22;16337;59.536;13.468;2023-09-30T01:35:59;10.90;99.90
29341;DHT22;16337;59.536;13.468;2023-09-30T01:38:25;10.90;99.90
29341;DHT22;16337;59.536;13.468;2023-09-30T01:40:51;10.80;99.90
29341;DHT22;16337;59.536;13.468;2023-09-30T01:43:17;10.70;99.90
29341;DHT22;16337;59.536;13.468;2023-09-30T01:45:43;10.60;99.90
29341;DHT22;16337;59.536;13.468;2023-09-30T01:48:10;10.60;99.90
29341;DHT22;16337;59.536;13.468;2023-09-30T01:50:39;10.50;99.90
29341;DHT22;16337;59.536;13.468;2023-09-30T01:53:06;10.50;99.90
29341;DHT22;16337;59.536;13.468;2023-09-30T01:55:32;10.50;99.90
29341;DHT22;16337;59.536;13.468;2023-09-30T01:57:59;10.40;99.90
29341;DHT22;16337;59.536;13.468;2023-09-30T02:00:24;10.40;99.90
29341;DHT22;16337;59.536;13.468;2023-09-30T02:02:50;10.30;99.90
29341;DHT22;16337;59.536;13.468;2023-09-30T02:05:16;10.30;99.90
29341;DHT22;16337;59.536;13.468;2023-09-30T02:07:41;10.20;99.90
29341;DHT22;16337;59.536;13.468;2023-09-30T02:10:08;10.20;99.90
29341;DHT22;16337;59.536;13.468;2023-09-30T02:12:33;10.20;99.90
29341;DHT22;16337;59.536;13.468;2023-09-30T02:14:59;10.20;99.90
29341;DHT22;16337;59.536;13.468;2023-09-30T02:17:25;10.20;99.90
29341;DHT22;16337;59.536;13.468;2023-09-30T02:19:50;10.30;99.90
29341;DHT22;16337;59.536;13.468;2023-09-30T02:22:16;10.30;99.90
29341;DHT22;16337;59.536;13.468;2023-09-30T02:24:42;10.20;99.90
29341;DHT22;16337;59.536;13.468;2023-09-30T02:27:08;10.20;99.90
29341;DHT22;16337;59.536;13.468;2023-09-30T02:29:33;10.20;99.90
29341;DHT22;16337;59.536;13.468;2023-09-30T02:31:59;10.20;99.90
29341;DHT22;16337;59.536;13.468;2023-09-30T02:34:25;10.10;99.90
29341;DHT22;16337;59.536;13.468;2023-09-30T02:36:56;10.10;99.90
29341;DHT22;16337;59.536;13.468;2023-09-30T02:39:22;10.10;99.90
29341;DHT22;16337;59.536;13.468;2023-09-30T02:41:47;10.10;99.90
29341;DHT22;16337;59.536;13.468;2023-09-30T02:44:15;10.10;99.90
29341;DHT22;16337;59.536;13.468;2023-09-30T02:46:41;10.10;99.90
29341;DHT22;16337;59.536;13.468;2023-09-30T02:49:07;10.10;99.90
29341;DHT22;16337;59.536;13.468;2023-09-30T02:51:33;10.10;99.90
29341;DHT22;16337;59.536;13.468;2023-09-30T02:53:59;10.20;99.90
29341;DHT22;16337;59.536;13.468;2023-09-30T02:56:27;10.30;99.90
29341;DHT22;16337;59.536;13.468;2023-09-30T02:58:56;10.30;99.90
29341;DHT22;16337;59.536;13.468;2023-09-30T03:01:22;10.40;99.90
29341;DHT22;16337;59.536;13.468;2023-09-30T03:03:47;10.40;99.90
29341;DHT22;16337;59.536;13.468;2023-09-30T03:06:13;10.50;99.90
29341;DHT22;16337;59.536;13.468;2023-09-30T03:08:39;10.50;99.90
29341;DHT22;16337;59.536;13.468;2023-09-30T03:11:06;10.60;99.90
29341;DHT22;16337;59.536;13.468;2023-09-30T03:13:33;10.50;99.90
29341;DHT22;16337;59.536;13.468;2023-09-30T03:15:59;10.50;99.90
29341;DHT22;16337;59.536;13.468;2023-09-30T03:18:27;10.40;99.90
29341;DHT22;16337;59.536;13.468;2023-09-30T03:21:00;10.30;99.90
29341;DHT22;16337;59.536;13.468;2023-09-30T03:23:27;10.20;99.90
29341;DHT22;16337;59.536;13.468;2023-09-30T03:25:59;10.20;99.90
29341;DHT22;16337;59.536;13.468;2023-09-30T03:28:25;10.20;99.90
29341;DHT22;16337;59.536;13.468;2023-09-30T03:30:51;10.20;99.90
29341;DHT22;16337;59.536;13.468;2023-09-30T03:33:16;10.20;99.90
29341;DHT22;16337;59.536;13.468;2023-09-30T03:35:42;10.20;99.90
29341;DHT22;16337;59.536;13.468;2023-09-30T03:38:08;10.30;99.90
29341;DHT22;16337;59.536;13.468;2023-09-30T03:40:35;10.40;99.90
29341;DHT22;16337;59.536;13.468;2023-09-30T03:43:04;10.40;99.90
29341;DHT22;16337;59.536;13.468;2023-09-30T03:45:31;10.50;99.90
29341;DHT22;16337;59.536;13.468;2023-09-30T03:48:01;10.60;99.90
29341;DHT22;16337;59.536;13.468;2023-09-30T03:50:28;10.70;99.90
29341;DHT22;16337;59.536;13.468;2023-09-30T03:53:04;10.80;99.90
29341;DHT22;16337;59.536;13.468;2023-09-30T03:55:30;10.80;99.90
29341;DHT22;16337;59.536;13.468;2023-09-30T03:57:57;10.90;99.90
29341;DHT22;16337;59.536;13.468;2023-09-30T04:00:23;10.90;99.90
29341;DHT22;16337;59.536;13.468;2023-09-30T04:02:50;10.90;99.90
29341;DHT22;16337;59.536;13.468;2023-09-30T04:05:22;10.90;99.90
29341;DHT22;16337;59.536;13.468;2023-09-30T04:07:54;10.80;99.90
29341;DHT22;16337;59.536;13.468;2023-09-30T04:10:20;10.80;99.90
29341;DHT22;16337;59.536;13.468;2023-09-30T04:12:48;10.90;99.90
29341;DHT22;16337;59.536;13.468;2023-09-30T04:15:14;10.90;99.90
29341;DHT22;16337;59.536;13.468;2023-09-30T04:17:40;10.80;99.90
29341;DHT22;16337;59.536;13.468;2023-09-30T04:20:07;10.80;99.90
29341;DHT22;16337;59.536;13.468;2023-09-30T04:22:41;10.70;99.90
29341;DHT22;16337;59.536;13.468;2023-09-30T04:25:11;10.70;99.90
29341;DHT22;16337;59.536;13.468;2023-09-30T04:27:37;10.60;99.90
29341;DHT22;16337;59.536;13.468;2023-09-30T04:30:03;10.50;99.90
29341;DHT22;16337;59.536;13.468;2023-09-30T04:32:38;10.50;99.90
29341;DHT22;16337;59.536;13.468;2023-09-30T04:35:07;10.40;99.90
29341;DHT22;16337;59.536;13.468;2023-09-30T04:37:37;10.20;99.90
29341;DHT22;16337;59.536;13.468;2023-09-30T04:40:07;10.20;99.90
29341;DHT22;16337;59.536;13.468;2023-09-30T04:42:41;10.00;99.90
29341;DHT22;16337;59.536;13.468;2023-09-30T04:45:07;10.00;99.90
29341;DHT22;16337;59.536;13.468;2023-09-30T04:47:33;10.00;99.90
29341;DHT22;16337;59.536;13.468;2023-09-30T04:53:14;10.10;99.90
29341;DHT22;16337;59.536;13.468;2023-09-30T04:59:24;10.10;99.90
29341;DHT22;16337;59.536;13.468;2023-09-30T05:01:50;10.10;99.90
29341;DHT22;16337;59.536;13.468;2023-09-30T05:04:55;10.00;99.90
29341;DHT22;16337;59.536;13.468;2023-09-30T05:07:21;10.00;99.90
29341;DHT22;16337;59.536;13.468;2023-09-30T05:09:58;10.00;99.90
29341;DHT22;16337;59.536;13.468;2023-09-30T05:12:28;9.90;99.90
29341;DHT22;16337;59.536;13.468;2023-09-30T05:14:56;9.90;99.90
29341;DHT22;16337;59.536;13.468;2023-09-30T05:17:22;9.90;99.90
29341;DHT22;16337;59.536;13.468;2023-09-30T05:20:06;9.90;99.90
29341;DHT22;16337;59.536;13.468;2023-09-30T05:22:33;9.90;99.90
29341;DHT22;16337;59.536;13.468;2023-09-30T05:28:26;10.00;99.90
29341;DHT22;16337;59.536;13.468;2023-09-30T05:31:08;10.10;99.90
29341;DHT22;16337;59.536;13.468;2023-09-30T05:34:06;10.10;99.90
29341;DHT22;16337;59.536;13.468;2023-09-30T05:36:52;10.10;99.90
29341;DHT22;16337;59.536;13.468;2023-09-30T05:39:18;10.20;99.90
29341;DHT22;16337;59.536;13.468;2023-09-30T05:53:00;10.50;99.90
29341;DHT22;16337;59.536;13.468;2023-09-30T05:55:42;10.60;99.90
29341;DHT22;16337;59.536;13.468;2023-09-30T05:58:39;10.60;99.90
29341;DHT22;16337;59.536;13.468;2023-09-30T06:04:45;10.70;99.90
29341;DHT22;16337;59.536;13.468;2023-09-30T06:07:11;10.80;99.90
29341;DHT22;16337;59.536;13.468;2023-09-30T06:09:37;10.90;99.90
29341;DHT22;16337;59.536;13.468;2023-09-30T06:12:03;11.00;99.90
29341;DHT22;16337;59.536;13.468;2023-09-30T06:15:03;11.00;99.90
29341;DHT22;16337;59.536;13.468;2023-09-30T06:18:05;11.20;99.90
29341;DHT22;16337;59.536;13.468;2023-09-30T06:20:35;11.30;99.90
29341;DHT22;16337;59.536;13.468;2023-09-30T06:23:01;11.40;99.90
29341;DHT22;16337;59.536;13.468;2023-09-30T06:29:23;11.60;99.90
29341;DHT22;16337;59.536;13.468;2023-09-30T06:35:06;11.90;99.90
29341;DHT22;16337;59.536;13.468;2023-09-30T06:37:32;12.10;99.90
29341;DHT22;16337;59.536;13.468;2023-09-30T06:40:19;12.20;99.90
29341;DHT22;16337;59.536;13.468;2023-09-30T06:43:19;12.40;99.90
29341;DHT22;16337;59.536;13.468;2023-09-30T06:45:46;12.50;99.90
29341;DHT22;16337;59.536;13.468;2023-09-30T06:48:16;12.50;99.90
29341;DHT22;16337;59.536;13.468;2023-09-30T06:50:46;12.50;99.90
29341;DHT22;16337;59.536;13.468;2023-09-30T06:53:27;12.60;99.90
29341;DHT22;16337;59.536;13.468;2023-09-30T06:56:15;12.70;99.90
29341;DHT22;16337;59.536;13.468;2023-09-30T06:59:12;12.90;99.90
29341;DHT22;16337;59.536;13.468;2023-09-30T07:02:02;13.00;99.90
29341;DHT22;16337;59.536;13.468;2023-09-30T07:04:39;13.10;99.90
29341;DHT22;16337;59.536;13.468;2023-09-30T07:07:05;13.20;99.90
29341;DHT22;16337;59.536;13.468;2023-09-30T07:09:31;13.30;99.90
29341;DHT22;16337;59.536;13.468;2023-09-30T07:12:24;13.40;99.90
29341;DHT22;16337;59.536;13.468;2023-09-30T07:14:50;13.50;99.90
29341;DHT22;16337;59.536;13.468;2023-09-30T07:17:16;13.60;99.90
29341;DHT22;16337;59.536;13.468;2023-09-30T07:19:42;13.60;99.90
29341;DHT22;16337;59.536;13.468;2023-09-30T07:22:08;13.70;99.90
29341;DHT22;16337;59.536;13.468;2023-09-30T07:24:44;13.70;99.90
29341;DHT22;16337;59.536;13.468;2023-09-30T07:27:10;13.80;99.90
29341;DHT22;16337;59.536;13.468;2023-09-30T07:29:36;13.90;99.90
29341;DHT22;16337;59.536;13.468;2023-09-30T07:32:02;14.10;99.90
29341;DHT22;16337;59.536;13.468;2023-09-30T07:34:34;14.10;99.90
29341;DHT22;16337;59.536;13.468;2023-09-30T07:37:02;14.30;99.90
29341;DHT22;16337;59.536;13.468;2023-09-30T07:39:58;14.30;99.90
29341;DHT22;16337;59.536;13.468;2023-09-30T07:42:25;14.60;99.90
29341;DHT22;16337;59.536;13.468;2023-09-30T07:44:50;14.70;99.90
29341;DHT22;16337;59.536;13.468;2023-09-30T07:50:41;15.00;99.90
29341;DHT22;16337;59.536;13.468;2023-09-30T07:53:07;15.20;99.90
29341;DHT22;16337;59.536;13.468;2023-09-30T07:55:33;15.30;99.90
29341;DHT22;16337;59.536;13.468;2023-09-30T07:58:12;15.30;99.90
29341;DHT22;16337;59.536;13.468;2023-09-30T08:00:38;15.20;99.90
29341;DHT22;16337;59.536;13.468;2023-09-30T08:03:04;15.30;99.90
29341;DHT22;16337;59.536;13.468;2023-09-30T08:05:29;15.30;99.90
29341;DHT22;16337;59.536;13.468;2023-09-30T08:07:55;15.40;99.90
29341;DHT22;16337;59.536;13.468;2023-09-30T08:10:21;15.50;99.90
29341;DHT22;16337;59.536;13.468;2023-09-30T08:16:58;15.70;99.90
29341;DHT22;16337;59.536;13.468;2023-09-30T08:19:24;15.80;99.90
29341;DHT22;16337;59.536;13.468;2023-09-30T08:21:52;15.80;99.90
29341;DHT22;16337;59.536;13.468;2023-09-30T08:24:18;16.00;99.90
29341;DHT22;16337;59.536;13.468;2023-09-30T08:26:43;16.10;99.90
29341;DHT22;16337;59.536;13.468;2023-09-30T08:29:09;16.10;99.90
29341;DHT22;16337;59.536;13.468;2023-09-30T08:31:35;16.20;99.90
29341;DHT22;16337;59.536;13.468;2023-09-30T08:34:00;16.30;99.90
29341;DHT22;16337;59.536;13.468;2023-09-30T08:36:29;16.50;99.90
29341;DHT22;16337;59.536;13.468;2023-09-30T08:38:58;16.50;99.90
29341;DHT22;16337;59.536;13.468;2023-09-30T08:41:31;16.70;99.90
29341;DHT22;16337;59.536;13.468;2023-09-30T08:44:00;16.60;99.90
29341;DHT22;16337;59.536;13.468;2023-09-30T08:46:32;16.50;99.90
29341;DHT22;16337;59.536;13.468;2023-09-30T08:49:02;16.50;99.90
29341;DHT22;16337;59.536;13.468;2023-09-30T08:51:29;16.50;99.90
29341;DHT22;16337;59.536;13.468;2023-09-30T08:53:56;16.50;99.90
29341;DHT22;16337;59.536;13.468;2023-09-30T08:56:27;16.50;99.90
29341;DHT22;16337;59.536;13.468;2023-09-30T08:58:57;16.50;99.90
29341;DHT22;16337;59.536;13.468;2023-09-30T09:04:39;16.60;99.90
29341;DHT22;16337;59.536;13.468;2023-09-30T09:07:05;16.70;99.90
29341;DHT22;16337;59.536;13.468;2023-09-30T09:09:31;16.80;99.90
29341;DHT22;16337;59.536;13.468;2023-09-30T09:15:29;17.20;99.90
29341;DHT22;16337;59.536;13.468;2023-09-30T09:21:23;17.30;99.90
29341;DHT22;16337;59.536;13.468;2023-09-30T09:24:06;17.50;99.90
29341;DHT22;16337;59.536;13.468;2023-09-30T09:26:32;17.60;99.90
29341;DHT22;16337;59.536;13.468;2023-09-30T09:29:02;17.90;99.90
29341;DHT22;16337;59.536;13.468;2023-09-30T09:31:35;18.10;99.90
29341;DHT22;16337;59.536;13.468;2023-09-30T09:34:13;18.40;99.90
29341;DHT22;16337;59.536;13.468;2023-09-30T09:36:43;18.60;99.90
29341;DHT22;16337;59.536;13.468;2023-09-30T09:39:48;18.90;99.90
29341;DHT22;16337;59.536;13.468;2023-09-30T09:42:24;19.20;99.90
29341;DHT22;16337;59.536;13.468;2023-09-30T09:45:10;19.00;99.90
29341;DHT22;16337;59.536;13.468;2023-09-30T09:47:38;19.00;99.90
29341;DHT22;16337;59.536;13.468;2023-09-30T09:50:05;18.90;99.90
29341;DHT22;16337;59.536;13.468;2023-09-30T09:52:34;18.90;99.90
29341;DHT22;16337;59.536;13.468;2023-09-30T09:55:01;19.00;99.90
29341;DHT22;16337;59.536;13.468;2023-09-30T09:57:27;19.00;99.90
29341;DHT22;16337;59.536;13.468;2023-09-30T10:00:26;19.10;99.90
29341;DHT22;16337;59.536;13.468;2023-09-30T10:02:59;18.90;99.90
29341;DHT22;16337;59.536;13.468;2023-09-30T10:05:25;18.90;99.90
29341;DHT22;16337;59.536;13.468;2023-09-30T10:08:05;19.10;99.90
29341;DHT22;16337;59.536;13.468;2023-09-30T10:10:36;19.10;99.90
29341;DHT22;16337;59.536;13.468;2023-09-30T10:13:02;19.30;99.90
29341;DHT22;16337;59.536;13.468;2023-09-30T10:20:41;19.50;99.90
29341;DHT22;16337;59.536;13.468;2023-09-30T10:25:51;19.80;99.90
29341;DHT22;16337;59.536;13.468;2023-09-30T10:28:58;19.50;99.90
29341;DHT22;16337;59.536;13.468;2023-09-30T10:31:49;19.50;99.90
29341;DHT22;16337;59.536;13.468;2023-09-30T10:34:22;19.60;99.90
29341;DHT22;16337;59.536;13.468;2023-09-30T10:36:48;19.70;99.90
29341;DHT22;16337;59.536;13.468;2023-09-30T10:42:49;19.80;99.90
29341;DHT22;16337;59.536;13.468;2023-09-30T10:55:03;19.50;99.90
29341;DHT22;16337;59.536;13.468;2023-09-30T10:57:41;19.40;99.90
29341;DHT22;16337;59.536;13.468;2023-09-30T11:03:46;19.50;99.90
29341;DHT22;16337;59.536;13.468;2023-09-30T11:06:17;19.20;99.90
29341;DHT22;16337;59.536;13.468;2023-09-30T11:09:09;18.90;99.90
29341;DHT22;16337;59.536;13.468;2023-09-30T11:18:56;19.20;99.90
29341;DHT22;16337;59.536;13.468;2023-09-30T11:22:06;19.10;99.90
29341;DHT22;16337;59.536;13.468;2023-09-30T11:24:44;19.10;99.90
29341;DHT22;16337;59.536;13.468;2023-09-30T11:27:13;18.90;99.90
29341;DHT22;16337;59.536;13.468;2023-09-30T11:36:50;18.60;99.90
29341;DHT22;16337;59.536;13.468;2023-09-30T11:39:29;19.00;99.90
29341;DHT22;16337;59.536;13.468;2023-09-30T11:45:29;19.00;99.90
29341;DHT22;16337;59.536;13.468;2023-09-30T11:47:55;18.90;99.90
29341;DHT22;16337;59.536;13.468;2023-09-30T11:50:22;18.70;99.90
29341;DHT22;16337;59.536;13.468;2023-09-30T11:52:50;18.50;99.90
29341;DHT22;16337;59.536;13.468;2023-09-30T11:55:15;18.30;99.90
29341;DHT22;16337;59.536;13.468;2023-09-30T11:57:42;18.10;99.90
29341;DHT22;16337;59.536;13.468;2023-09-30T12:00:08;17.80;99.90
29341;DHT22;16337;59.536;13.468;2023-09-30T12:02:39;17.90;99.90
29341;DHT22;16337;59.536;13.468;2023-09-30T12:05:06;18.00;99.90
29341;DHT22;16337;59.536;13.468;2023-09-30T12:07:40;18.20;99.90
29341;DHT22;16337;59.536;13.468;2023-09-30T12:10:09;18.50;99.90
29341;DHT22;16337;59.536;13.468;2023-09-30T12:12:34;18.70;99.90
29341;DHT22;16337;59.536;13.468;2023-09-30T12:15:00;18.50;99.90
29341;DHT22;16337;59.536;13.468;2023-09-30T12:17:26;18.30;99.90
29341;DHT22;16337;59.536;13.468;2023-09-30T12:19:52;18.30;99.90
29341;DHT22;16337;59.536;13.468;2023-09-30T12:22:17;18.20;99.90
29341;DHT22;16337;59.536;13.468;2023-09-30T12:24:43;18.20;99.90
29341;DHT22;16337;59.536;13.468;2023-09-30T12:27:09;18.10;99.90
29341;DHT22;16337;59.536;13.468;2023-09-30T12:29:35;17.80;99.90
29341;DHT22;16337;59.536;13.468;2023-09-30T12:32:03;17.90;99.90
29341;DHT22;16337;59.536;13.468;2023-09-30T12:35:04;17.90;99.90
29341;DHT22;16337;59.536;13.468;2023-09-30T12:37:30;18.10;99.90
29341;DHT22;16337;59.536;13.468;2023-09-30T12:39:55;18.10;99.90
29341;DHT22;16337;59.536;13.468;2023-09-30T12:42:21;18.10;99.90
29341;DHT22;16337;59.536;13.468;2023-09-30T12:44:46;18.00;99.90
29341;DHT22;16337;59.536;13.468;2023-09-30T12:47:12;18.10;99.90
29341;DHT22;16337;59.536;13.468;2023-09-30T12:49:38;18.30;99.90
29341;DHT22;16337;59.536;13.468;2023-09-30T12:52:04;18.20;99.90
29341;DHT22;16337;59.536;13.468;2023-09-30T12:54:30;18.20;99.90
29341;DHT22;16337;59.536;13.468;2023-09-30T12:56:55;18.20;99.90
29341;DHT22;16337;59.536;13.468;2023-09-30T12:59:50;18.30;99.90
29341;DHT22;16337;59.536;13.468;2023-09-30T13:02:50;18.30;99.90
29341;DHT22;16337;59.536;13.468;2023-09-30T13:05:36;18.10;99.90
29341;DHT22;16337;59.536;13.468;2023-09-30T13:08:02;17.90;99.90
29341;DHT22;16337;59.536;13.468;2023-09-30T13:11:02;17.80;99.90
29341;DHT22;16337;59.536;13.468;2023-09-30T13:16:55;17.50;99.90
29341;DHT22;16337;59.536;13.468;2023-09-30T13:19:49;17.50;99.90
29341;DHT22;16337;59.536;13.468;2023-09-30T13:25:45;17.40;99.90
29341;DHT22;16337;59.536;13.468;2023-09-30T13:28:40;17.30;99.90
29341;DHT22;16337;59.536;13.468;2023-09-30T13:31:06;17.40;99.90
29341;DHT22;16337;59.536;13.468;2023-09-30T13:33:32;17.30;99.90
29341;DHT22;16337;59.536;13.468;2023-09-30T13:35:58;17.30;99.90
29341;DHT22;16337;59.536;13.468;2023-09-30T13:38:24;17.50;99.90
29341;DHT22;16337;59.536;13.468;2023-09-30T13:40:49;17.50;99.90
29341;DHT22;16337;59.536;13.468;2023-09-30T13:43:15;17.60;99.90
29341;DHT22;16337;59.536;13.468;2023-09-30T13:45:41;17.60;99.90
29341;DHT22;16337;59.536;13.468;2023-09-30T13:48:07;17.60;99.90
29341;DHT22;16337;59.536;13.468;2023-09-30T13:50:32;17.50;99.90
29341;DHT22;16337;59.536;13.468;2023-09-30T13:52:58;17.40;99.90
29341;DHT22;16337;59.536;13.468;2023-09-30T13:55:26;17.30;99.90
29341;DHT22;16337;59.536;13.468;2023-09-30T13:57:52;17.30;99.90
29341;DHT22;16337;59.536;13.468;2023-09-30T14:00:20;17.30;99.90
29341;DHT22;16337;59.536;13.468;2023-09-30T14:02:46;17.20;99.90
29341;DHT22;16337;59.536;13.468;2023-09-30T14:05:12;17.10;99.90
29341;DHT22;16337;59.536;13.468;2023-09-30T14:07:39;16.90;99.90
29341;DHT22;16337;59.536;13.468;2023-09-30T14:10:06;16.90;99.90
29341;DHT22;16337;59.536;13.468;2023-09-30T14:12:32;16.90;99.90
29341;DHT22;16337;59.536;13.468;2023-09-30T14:14:58;16.80;99.90
29341;DHT22;16337;59.536;13.468;2023-09-30T14:17:24;16.90;99.90
29341;DHT22;16337;59.536;13.468;2023-09-30T14:19:51;17.00;99.90
29341;DHT22;16337;59.536;13.468;2023-09-30T14:22:16;17.00;99.90
29341;DHT22;16337;59.536;13.468;2023-09-30T14:24:43;17.00;99.90
29341;DHT22;16337;59.536;13.468;2023-09-30T14:27:10;17.10;99.90
29341;DHT22;16337;59.536;13.468;2023-09-30T14:29:36;17.20;99.90
29341;DHT22;16337;59.536;13.468;2023-09-30T14:32:02;17.10;99.90
29341;DHT22;16337;59.536;13.468;2023-09-30T14:34:27;17.10;99.90
29341;DHT22;16337;59.536;13.468;2023-09-30T14:37:14;17.00;99.90
29341;DHT22;16337;59.536;13.468;2023-09-30T14:39:40;16.90;99.90
29341;DHT22;16337;59.536;13.468;2023-09-30T14:42:06;16.70;99.90
29341;DHT22;16337;59.536;13.468;2023-09-30T14:44:32;16.60;99.90
29341;DHT22;16337;59.536;13.468;2023-09-30T14:46:57;16.50;99.90
29341;DHT22;16337;59.536;13.468;2023-09-30T14:49:26;16.50;99.90
29341;DHT22;16337;59.536;13.468;2023-09-30T14:51:52;16.40;99.90
29341;DHT22;16337;59.536;13.468;2023-09-30T14:54:17;16.30;99.90
29341;DHT22;16337;59.536;13.468;2023-09-30T14:56:43;16.30;99.90
29341;DHT22;16337;59.536;13.468;2023-09-30T14:59:09;16.30;99.90
29341;DHT22;16337;59.536;13.468;2023-09-30T15:01:47;16.20;99.90
29341;DHT22;16337;59.536;13.468;2023-09-30T15:04:14;16.20;99.90
29341;DHT22;16337;59.536;13.468;2023-09-30T15:06:41;16.10;99.90
29341;DHT22;16337;59.536;13.468;2023-09-30T15:09:07;16.00;99.90
29341;DHT22;16337;59.536;13.468;2023-09-30T15:11:35;16.00;99.90
29341;DHT22;16337;59.536;13.468;2023-09-30T15:14:01;15.80;99.90
29341;DHT22;16337;59.536;13.468;2023-09-30T15:17:14;15.80;99.90
29341;DHT22;16337;59.536;13.468;2023-09-30T15:19:40;15.80;99.90
29341;DHT22;16337;59.536;13.468;2023-09-30T15:22:06;15.70;99.90
29341;DHT22;16337;59.536;13.468;2023-09-30T15:24:31;15.70;99.90
29341;DHT22;16337;59.536;13.468;2023-09-30T15:26:57;15.70;99.90
29341;DHT22;16337;59.536;13.468;2023-09-30T15:29:23;15.70;99.90
29341;DHT22;16337;59.536;13.468;2023-09-30T15:31:48;15.60;99.90
29341;DHT22;16337;59.536;13.468;2023-09-30T15:34:14;15.60;99.90
29341;DHT22;16337;59.536;13.468;2023-09-30T15:36:40;15.40;99.90
29341;DHT22;16337;59.536;13.468;2023-09-30T15:39:18;15.40;99.90
29341;DHT22;16337;59.536;13.468;2023-09-30T15:41:44;15.30;99.90
29341;DHT22;16337;59.536;13.468;2023-09-30T15:44:09;15.20;99.90
29341;DHT22;16337;59.536;13.468;2023-09-30T15:46:35;15.10;99.90
29341;DHT22;16337;59.536;13.468;2023-09-30T15:49:04;14.90;99.90
29341;DHT22;16337;59.536;13.468;2023-09-30T15:51:38;14.90;99.90
29341;DHT22;16337;59.536;13.468;2023-09-30T15:54:47;15.00;99.90
29341;DHT22;16337;59.536;13.468;2023-09-30T16:00:41;15.80;99.90
29341;DHT22;16337;59.536;13.468;2023-09-30T16:03:09;16.00;99.90
29341;DHT22;16337;59.536;13.468;2023-09-30T16:05:37;15.90;99.90
29341;DHT22;16337;59.536;13.468;2023-09-30T16:08:07;16.10;99.90
29341;DHT22;16337;59.536;13.468;2023-09-30T16:10:37;16.20;99.90
29341;DHT22;16337;59.536;13.468;2023-09-30T16:13:03;16.10;99.90
29341;DHT22;16337;59.536;13.468;2023-09-30T16:15:32;16.10;99.90
29341;DHT22;16337;59.536;13.468;2023-09-30T16:17:58;16.20;99.90
29341;DHT22;16337;59.536;13.468;2023-09-30T16:20:24;16.20;99.90
29341;DHT22;16337;59.536;13.468;2023-09-30T16:23:24;16.30;99.90
29341;DHT22;16337;59.536;13.468;2023-09-30T16:25:49;16.30;99.90
29341;DHT22;16337;59.536;13.468;2023-09-30T16:29:03;16.20;99.90
29341;DHT22;16337;59.536;13.468;2023-09-30T16:31:29;15.90;99.90
29341;DHT22;16337;59.536;13.468;2023-09-30T16:33:54;16.00;99.90
29341;DHT22;16337;59.536;13.468;2023-09-30T16:36:20;16.00;99.90
29341;DHT22;16337;59.536;13.468;2023-09-30T16:38:46;16.00;99.90
29341;DHT22;16337;59.536;13.468;2023-09-30T16:41:11;16.00;99.90
29341;DHT22;16337;59.536;13.468;2023-09-30T16:43:39;15.90;99.90
29341;DHT22;16337;59.536;13.468;2023-09-30T16:46:06;15.90;99.90
29341;DHT22;16337;59.536;13.468;2023-09-30T16:48:32;15.80;99.90
29341;DHT22;16337;59.536;13.468;2023-09-30T16:50:57;15.80;99.90
29341;DHT22;16337;59.536;13.468;2023-09-30T16:53:23;15.70;99.90
29341;DHT22;16337;59.536;13.468;2023-09-30T16:55:50;15.80;99.90
29341;DHT22;16337;59.536;13.468;2023-09-30T16:58:18;15.60;99.90
29341;DHT22;16337;59.536;13.468;2023-09-30T17:00:43;15.70;99.90
29341;DHT22;16337;59.536;13.468;2023-09-30T17:03:09;15.70;99.90
29341;DHT22;16337;59.536;13.468;2023-09-30T17:05:37;15.70;99.90
29341;DHT22;16337;59.536;13.468;2023-09-30T17:08:03;15.50;99.90
29341;DHT22;16337;59.536;13.468;2023-09-30T17:10:42;15.50;99.90
29341;DHT22;16337;59.536;13.468;2023-09-30T17:13:43;15.50;99.90
29341;DHT22;16337;59.536;13.468;2023-09-30T17:16:09;15.50;99.90